This is the latest recevied weather packets stored in our database for station/object LRTM. If no packets are shown the sender has not sent any weather packets the latest 10 day(s).
| Time | Temp. | Humidity | Pressure | Rain* | Wind** | Luminosity | Snow |
|---|---|---|---|---|---|---|---|
| 1777667606 | 7.22° C | 57% | 1023 hPa | - | - | - | - |
| 1777666707 | 7.78° C | 53% | 1023 hPa | - | - | - | - |
| 1777665806 | 7.78° C | 53% | 1023 hPa | - | - | - | - |
| 1777664924 | 11.11° C | 41% | 1023 hPa | - | - | - | - |
| 1777664028 | 11.11° C | 41% | 1023 hPa | - | - | - | - |
| 1777663106 | 12.22° C | 38% | 1023 hPa | - | - | - | - |
| 1777662207 | 12.22° C | 38% | 1023 hPa | - | - | - | - |
| 1777661306 | 10° C | 58% | 1023 hPa | - | - | - | - |
| 1777660435 | 10° C | 58% | 1023 hPa | - | - | - | - |
| 1777659507 | 11.11° C | 50% | 1022 hPa | - | - | - | - |
| 1777658629 | 11.11° C | 50% | 1022 hPa | - | - | - | - |
| 1777657707 | 12.22° C | 44% | 1022 hPa | - | - | - | - |
| 1777656806 | 12.22° C | 44% | 1022 hPa | - | - | - | - |
| 1777655931 | 12.78° C | 33% | 1022 hPa | - | - | - | - |
| 1777655006 | 12.78° C | 33% | 1022 hPa | - | - | - | - |
| 1777654106 | 13.89° C | 29% | 1022 hPa | - | - | - | - |
| 1777653206 | 13.89° C | 29% | 1022 hPa | - | - | - | - |
| 1777652306 | 13.89° C | 29% | 1022 hPa | - | - | - | - |
| 1777651407 | 13.89° C | 29% | 1022 hPa | - | - | - | - |
| 1777650506 | 13.89° C | 29% | 1023 hPa | - | - | - | - |
| 1777649606 | 13.89° C | 29% | 1023 hPa | - | - | - | - |
| 1777648707 | 15° C | 27% | 1023 hPa | - | - | - | - |
| 1777647806 | 15° C | 27% | 1023 hPa | - | - | - | - |
| 1777646944 | 13.89° C | 29% | 1023 hPa | - | - | - | - |
| 1777646084 | 13.89° C | 29% | 1023 hPa | - | - | - | - |
* Rain since midnight (hover to see other rain measurements)
** Current wind speed in m/s (hover to see current wind gust speed)